createdAt,value
2019-04-06T00:00:01.825Z,98.608398
2019-04-06T00:00:13.737Z,98.608398
2019-04-06T00:00:25.693Z,98.608398
2019-04-06T00:00:37.593Z,98.608398
2019-04-06T00:00:49.454Z,98.608398
2019-04-06T00:01:01.288Z,98.608398
2019-04-06T00:01:13.174Z,98.608398
2019-04-06T00:01:25.270Z,98.608398
2019-04-06T00:01:37.102Z,98.608398
2019-04-06T00:01:48.948Z,98.608398
2019-04-06T00:02:00.946Z,98.608398
2019-04-06T00:02:12.803Z,98.608398
2019-04-06T00:02:24.650Z,98.608398
2019-04-06T00:02:36.493Z,98.608398
2019-04-06T00:02:48.334Z,98.608398
2019-04-06T00:03:00.263Z,98.608398
2019-04-06T00:03:12.117Z,98.608398
2019-04-06T00:03:24.023Z,98.608398
2019-04-06T00:03:36.008Z,98.608398
2019-04-06T00:03:48.031Z,98.712158
2019-04-06T00:03:59.871Z,98.608398
2019-04-06T00:04:11.721Z,98.712158
2019-04-06T00:04:23.624Z,98.712158
2019-04-06T00:04:35.633Z,98.608398
2019-04-06T00:04:47.449Z,98.712158
2019-04-06T00:04:59.313Z,98.712158
2019-04-06T00:05:11.257Z,98.712158
2019-04-06T00:05:23.124Z,98.712158
2019-04-06T00:05:34.983Z,98.712158
2019-04-06T00:05:46.823Z,98.712158
2019-04-06T00:05:58.696Z,98.608398
2019-04-06T00:06:10.638Z,98.608398
2019-04-06T00:06:22.501Z,98.608398
2019-04-06T00:06:34.413Z,98.608398
2019-04-06T00:06:46.391Z,98.608398
2019-04-06T00:06:58.307Z,98.608398
2019-04-06T00:07:10.165Z,98.608398
2019-04-06T00:07:22.093Z,98.712158
2019-04-06T00:07:33.941Z,98.712158
2019-04-06T00:07:45.936Z,98.712158
2019-04-06T00:07:57.789Z,98.712158
2019-04-06T00:08:09.631Z,98.712158
2019-04-06T00:08:21.532Z,98.712158
2019-04-06T00:08:33.394Z,98.712158
2019-04-06T00:08:45.237Z,98.712158
2019-04-06T00:08:57.083Z,98.712158
2019-04-06T00:09:08.933Z,98.712158
2019-04-06T00:09:20.862Z,98.712158
2019-04-06T00:09:32.700Z,98.712158
2019-04-06T00:09:44.595Z,98.712158
2019-04-06T00:09:56.508Z,98.712158
2019-04-06T00:10:08.440Z,98.712158
2019-04-06T00:10:20.344Z,98.712158
2019-04-06T00:10:32.162Z,98.712158
2019-04-06T00:10:44.075Z,98.712158
2019-04-06T00:10:57.035Z,98.712158
2019-04-06T00:11:08.967Z,98.712158
2019-04-06T00:11:20.908Z,98.712158
2019-04-06T00:11:32.702Z,98.712158
2019-04-06T00:11:44.618Z,98.815918
2019-04-06T00:11:56.564Z,98.815918
2019-04-06T00:12:08.508Z,98.815918
2019-04-06T00:12:20.395Z,98.815918
2019-04-06T00:12:32.242Z,98.815918
2019-04-06T00:12:44.173Z,98.815918
2019-04-06T00:12:56.072Z,98.815918
2019-04-06T00:13:07.922Z,98.815918
2019-04-06T00:13:19.913Z,98.815918
2019-04-06T00:13:31.785Z,98.815918
2019-04-06T00:13:43.750Z,98.815918
2019-04-06T00:13:56.019Z,98.815918
2019-04-06T00:14:07.907Z,98.815918
2019-04-06T00:14:19.781Z,98.815918
2019-04-06T00:14:31.635Z,98.815918
2019-04-06T00:14:43.480Z,98.815918
2019-04-06T00:14:55.338Z,98.815918
2019-04-06T00:15:07.342Z,98.919678
2019-04-06T00:15:19.193Z,98.815918
2019-04-06T00:15:31.098Z,98.815918
2019-04-06T00:15:43.026Z,98.919678
2019-04-06T00:15:54.956Z,98.919678
2019-04-06T00:16:06.814Z,98.919678
2019-04-06T00:16:18.666Z,98.815918
2019-04-06T00:16:30.535Z,98.919678
2019-04-06T00:16:42.430Z,98.919678
2019-04-06T00:16:54.309Z,98.919678
2019-04-06T00:17:06.176Z,98.919678
2019-04-06T00:17:18.084Z,98.919678
2019-04-06T00:17:29.955Z,98.919678
2019-04-06T00:17:41.812Z,98.919678
2019-04-06T00:17:53.729Z,98.919678
2019-04-06T00:18:05.572Z,98.919678
2019-04-06T00:18:17.541Z,98.919678
2019-04-06T00:18:29.380Z,98.919678
2019-04-06T00:18:41.266Z,98.919678
2019-04-06T00:18:53.222Z,98.919678
2019-04-06T00:19:05.065Z,98.919678
2019-04-06T00:19:16.908Z,98.815918
2019-04-06T00:19:28.753Z,98.815918
2019-04-06T00:19:40.635Z,98.815918
2019-04-06T00:19:52.575Z,98.919678
2019-04-06T00:20:04.424Z,98.815918
2019-04-06T00:20:16.343Z,98.815918
2019-04-06T00:20:28.342Z,98.815918
2019-04-06T00:20:40.230Z,98.815918
2019-04-06T00:20:52.114Z,98.815918
2019-04-06T00:21:03.961Z,98.815918
2019-04-06T00:21:15.883Z,98.815918
2019-04-06T00:21:27.889Z,98.815918
2019-04-06T00:21:39.776Z,98.815918
2019-04-06T00:21:51.617Z,98.815918
2019-04-06T00:22:03.552Z,98.815918
2019-04-06T00:22:15.444Z,98.815918
2019-04-06T00:22:27.285Z,98.815918
2019-04-06T00:22:39.180Z,98.815918
2019-04-06T00:22:50.987Z,98.815918
2019-04-06T00:23:02.929Z,98.815918
2019-04-06T00:23:14.807Z,98.815918
2019-04-06T00:23:26.725Z,98.815918
2019-04-06T00:23:38.645Z,98.815918
2019-04-06T00:23:50.516Z,98.815918
2019-04-06T00:24:02.360Z,98.815918
2019-04-06T00:24:14.289Z,98.815918
2019-04-06T00:24:26.229Z,98.815918
2019-04-06T00:24:38.165Z,98.815918
2019-04-06T00:24:50.016Z,98.815918
2019-04-06T00:25:01.931Z,98.815918
2019-04-06T00:25:13.827Z,98.815918
2019-04-06T00:25:25.751Z,98.815918
2019-04-06T00:25:44.072Z,98.815918
2019-04-06T00:25:50.447Z,98.815918
2019-04-06T00:26:02.307Z,98.712158
2019-04-06T00:26:14.163Z,98.712158
2019-04-06T00:26:26.105Z,98.712158
2019-04-06T00:26:37.971Z,98.712158
2019-04-06T00:26:49.812Z,98.712158
2019-04-06T00:27:01.749Z,98.712158
2019-04-06T00:27:14.628Z,98.712158
2019-04-06T00:27:27.560Z,98.712158
2019-04-06T00:27:39.434Z,98.712158
2019-04-06T00:27:51.371Z,98.712158
2019-04-06T00:28:03.227Z,98.608398
2019-04-06T00:28:15.070Z,98.608398
2019-04-06T00:28:27.055Z,98.608398
2019-04-06T00:28:39.026Z,98.608398
2019-04-06T00:28:50.872Z,98.608398
2019-04-06T00:29:02.718Z,98.608398
2019-04-06T00:29:14.582Z,98.608398
2019-04-06T00:29:26.514Z,98.504639
2019-04-06T00:29:38.359Z,98.504639
2019-04-06T00:29:50.210Z,98.504639
2019-04-06T00:30:02.149Z,98.504639
2019-04-06T00:30:14.146Z,98.504639
2019-04-06T00:30:25.994Z,98.406982
2019-04-06T00:30:37.851Z,98.406982
2019-04-06T00:30:49.695Z,98.406982
2019-04-06T00:31:01.669Z,98.406982
2019-04-06T00:31:13.578Z,98.406982
2019-04-06T00:31:25.405Z,98.303223
2019-04-06T00:31:37.301Z,98.303223
2019-04-06T00:31:49.208Z,98.303223
2019-04-06T00:32:01.039Z,98.303223
2019-04-06T00:32:12.891Z,98.199463
2019-04-06T00:32:24.738Z,98.199463
2019-04-06T00:32:36.733Z,98.095703
2019-04-06T00:32:48.575Z,98.095703
2019-04-06T00:33:00.429Z,97.991943
2019-04-06T00:33:12.421Z,97.991943
2019-04-06T00:33:24.520Z,98.034668
2019-04-06T00:33:36.408Z,97.937012
2019-04-06T00:33:48.298Z,97.937012
2019-04-06T00:34:00.288Z,97.937012
2019-04-06T00:34:12.141Z,97.937012
2019-04-06T00:34:24.061Z,97.833252
2019-04-06T00:34:35.962Z,97.833252
2019-04-06T00:34:47.809Z,97.833252
2019-04-06T00:34:59.726Z,97.833252
2019-04-06T00:35:11.659Z,97.833252
2019-04-06T00:35:23.502Z,97.833252
2019-04-06T00:35:35.443Z,97.833252
2019-04-06T00:35:47.309Z,97.729492
2019-04-06T00:35:59.214Z,97.729492
2019-04-06T00:36:11.079Z,97.729492
2019-04-06T00:36:22.925Z,97.729492
2019-04-06T00:36:34.914Z,97.729492
2019-04-06T00:36:46.843Z,97.729492
2019-04-06T00:36:58.694Z,97.668457
2019-04-06T00:37:10.642Z,97.668457
2019-04-06T00:37:22.620Z,97.668457
2019-04-06T00:37:34.532Z,97.668457
2019-04-06T00:37:46.379Z,97.668457
2019-04-06T00:37:58.289Z,97.668457
2019-04-06T00:38:10.123Z,97.668457
2019-04-06T00:38:22.087Z,97.668457
2019-04-06T00:38:34.070Z,97.564697
2019-04-06T00:38:45.891Z,97.564697
2019-04-06T00:38:57.817Z,97.564697
2019-04-06T00:39:09.701Z,97.564697
2019-04-06T00:39:21.543Z,97.564697
2019-04-06T00:39:33.404Z,97.564697
2019-04-06T00:39:45.250Z,97.564697
2019-04-06T00:39:57.204Z,97.564697
2019-04-06T00:40:09.035Z,97.564697
2019-04-06T00:40:20.980Z,97.564697
2019-04-06T00:40:32.874Z,97.564697
2019-04-06T00:40:44.795Z,97.564697
2019-04-06T00:40:56.632Z,97.564697
2019-04-06T00:41:08.518Z,97.564697
2019-04-06T00:41:20.345Z,97.564697
2019-04-06T00:41:32.293Z,97.564697
2019-04-06T00:41:44.126Z,97.564697
2019-04-06T00:41:56.057Z,97.564697
2019-04-06T00:42:07.998Z,97.564697
2019-04-06T00:42:19.920Z,97.564697
2019-04-06T00:42:32.828Z,97.613525
2019-04-06T00:42:44.717Z,97.613525
2019-04-06T00:42:56.544Z,97.717285
2019-04-06T00:43:08.446Z,97.717285
2019-04-06T00:43:20.356Z,97.717285
2019-04-06T00:43:32.234Z,97.717285
2019-04-06T00:43:44.137Z,97.717285
2019-04-06T00:43:56.050Z,97.717285
2019-04-06T00:44:07.979Z,97.717285
2019-04-06T00:44:19.837Z,97.717285
2019-04-06T00:44:31.715Z,97.717285
2019-04-06T00:44:43.662Z,97.821045
2019-04-06T00:44:55.544Z,97.821045
2019-04-06T00:45:07.396Z,97.821045
2019-04-06T00:45:19.244Z,97.821045
2019-04-06T00:45:31.160Z,97.821045
2019-04-06T00:45:43.013Z,97.821045
2019-04-06T00:45:54.872Z,97.821045
2019-04-06T00:46:06.710Z,97.924805
2019-04-06T00:46:18.633Z,97.924805
2019-04-06T00:46:30.633Z,97.924805
2019-04-06T00:46:42.486Z,97.924805
2019-04-06T00:46:54.317Z,97.924805
2019-04-06T00:47:06.169Z,98.022461
2019-04-06T00:47:18.145Z,98.022461
2019-04-06T00:47:30.060Z,98.022461
2019-04-06T00:47:41.838Z,98.126221
2019-04-06T00:47:53.767Z,98.126221
2019-04-06T00:48:05.650Z,98.22998
2019-04-06T00:48:17.520Z,98.33374
2019-04-06T00:48:29.376Z,98.33374
2019-04-06T00:48:41.232Z,98.4375
2019-04-06T00:48:53.194Z,98.4375
2019-04-06T00:49:05.029Z,98.4375
2019-04-06T00:49:16.910Z,98.4375
2019-04-06T00:49:28.899Z,98.54126
2019-04-06T00:49:40.764Z,98.54126
2019-04-06T00:49:52.592Z,98.54126
2019-04-06T00:50:04.455Z,98.54126
2019-04-06T00:50:16.356Z,98.54126
2019-04-06T00:50:28.346Z,98.54126
2019-04-06T00:50:40.192Z,98.54126
2019-04-06T00:50:52.027Z,98.54126
2019-04-06T00:51:03.997Z,98.54126
2019-04-06T00:51:15.857Z,98.4375
2019-04-06T00:51:27.702Z,98.4375
2019-04-06T00:51:39.541Z,98.4375
2019-04-06T00:51:51.407Z,98.4375
2019-04-06T00:52:03.343Z,98.4375
2019-04-06T00:52:15.181Z,98.4375
2019-04-06T00:52:27.188Z,98.33374
2019-04-06T00:52:39.092Z,98.33374
2019-04-06T00:52:50.977Z,98.33374
2019-04-06T00:53:02.813Z,98.33374
2019-04-06T00:53:14.656Z,98.22998
2019-04-06T00:53:26.516Z,98.22998
2019-04-06T00:53:38.396Z,98.22998
2019-04-06T00:53:50.236Z,98.22998
2019-04-06T00:54:02.210Z,98.22998
2019-04-06T00:54:16.142Z,98.22998
2019-04-06T00:54:26.454Z,98.22998
2019-04-06T00:54:38.303Z,98.22998
2019-04-06T00:54:50.144Z,98.126221
2019-04-06T00:55:02.002Z,98.126221
2019-04-06T00:55:13.941Z,98.126221
2019-04-06T00:55:25.778Z,98.126221
2019-04-06T00:55:37.625Z,98.175049
2019-04-06T00:55:55.291Z,98.126221
2019-04-06T00:56:02.484Z,98.175049
2019-04-06T00:56:14.604Z,98.175049
2019-04-06T00:56:26.498Z,98.175049
2019-04-06T00:56:38.366Z,98.175049
2019-04-06T00:56:50.204Z,98.175049
2019-04-06T00:57:02.054Z,98.175049
2019-04-06T00:57:14.076Z,98.126221
2019-04-06T00:57:25.923Z,98.175049
2019-04-06T00:57:37.781Z,98.175049
2019-04-06T00:57:49.755Z,98.175049
2019-04-06T00:58:01.664Z,98.175049
2019-04-06T00:58:13.514Z,98.175049
2019-04-06T00:58:25.382Z,98.175049
2019-04-06T00:58:37.232Z,98.175049
2019-04-06T00:58:49.288Z,98.175049
2019-04-06T00:59:01.142Z,98.175049
2019-04-06T00:59:13.049Z,98.175049
2019-04-06T00:59:24.975Z,98.175049
2019-04-06T00:59:36.973Z,98.175049
2019-04-06T00:59:48.819Z,98.175049
2019-04-06T01:00:00.681Z,98.175049
2019-04-06T01:00:12.719Z,98.071289
2019-04-06T01:00:24.584Z,98.071289
2019-04-06T01:00:36.640Z,98.071289
2019-04-06T01:00:48.519Z,98.071289
2019-04-06T01:01:00.359Z,98.175049
2019-04-06T01:01:12.252Z,98.175049
2019-04-06T01:01:24.113Z,98.175049
2019-04-06T01:01:35.980Z,98.175049
2019-04-06T01:01:48.002Z,98.175049
2019-04-06T01:02:00.122Z,98.175049
2019-04-06T01:02:11.995Z,98.175049
2019-04-06T01:02:23.841Z,98.175049
2019-04-06T01:02:35.700Z,98.175049
2019-04-06T01:02:47.802Z,98.175049
2019-04-06T01:02:59.766Z,98.175049
2019-04-06T01:03:11.573Z,98.175049
2019-04-06T01:03:23.632Z,98.175049
2019-04-06T01:03:35.409Z,98.175049
2019-04-06T01:03:47.385Z,98.175049
2019-04-06T01:03:59.289Z,98.175049
2019-04-06T01:04:11.146Z,98.175049
2019-04-06T01:04:23.127Z,98.175049
2019-04-06T01:04:34.998Z,98.175049
2019-04-06T01:04:47.041Z,98.071289
2019-04-06T01:04:58.923Z,98.071289
2019-04-06T01:05:10.749Z,98.071289
2019-04-06T01:05:23.532Z,97.967529
2019-04-06T01:05:35.493Z,97.967529
2019-04-06T01:05:47.422Z,97.86377
2019-04-06T01:05:59.279Z,97.86377
2019-04-06T01:06:11.128Z,97.76001
2019-04-06T01:06:22.975Z,97.76001
2019-04-06T01:06:34.943Z,97.65625
2019-04-06T01:06:46.807Z,97.65625
2019-04-06T01:06:58.652Z,97.55249
2019-04-06T01:07:10.640Z,97.55249
2019-04-06T01:07:23.232Z,97.55249
2019-04-06T01:07:34.488Z,97.55249
2019-04-06T01:07:46.312Z,97.44873
2019-04-06T01:07:58.195Z,97.44873
2019-04-06T01:08:10.128Z,97.44873
2019-04-06T01:08:21.966Z,97.44873
2019-04-06T01:08:33.799Z,97.344971
2019-04-06T01:08:45.741Z,97.344971
2019-04-06T01:08:57.627Z,97.344971
2019-04-06T01:09:09.475Z,97.247314
2019-04-06T01:09:21.383Z,97.247314
2019-04-06T01:09:33.305Z,97.247314
2019-04-06T01:09:45.252Z,97.247314
2019-04-06T01:09:57.103Z,97.247314
2019-04-06T01:10:08.953Z,97.143555
2019-04-06T01:10:20.994Z,97.143555
2019-04-06T01:10:32.909Z,97.143555
2019-04-06T01:10:44.755Z,97.143555
2019-04-06T01:10:56.604Z,97.039795
2019-04-06T01:11:08.529Z,97.039795
2019-04-06T01:11:21.386Z,97.039795
2019-04-06T01:11:33.243Z,96.936035
2019-04-06T01:11:45.180Z,96.936035
2019-04-06T01:11:57.030Z,96.936035
2019-04-06T01:12:08.995Z,96.875
2019-04-06T01:12:21.048Z,96.77124
2019-04-06T01:12:32.912Z,96.77124
2019-04-06T01:12:44.757Z,96.77124
2019-04-06T01:12:56.617Z,96.77124
2019-04-06T01:13:08.462Z,96.77124
2019-04-06T01:13:20.525Z,96.77124
2019-04-06T01:13:32.341Z,96.77124
2019-04-06T01:13:44.201Z,96.77124
2019-04-06T01:13:56.231Z,96.77124
2019-04-06T01:14:08.068Z,96.77124
2019-04-06T01:14:19.928Z,96.77124
2019-04-06T01:14:31.799Z,96.875
2019-04-06T01:14:43.758Z,96.875
2019-04-06T01:14:55.830Z,96.875
2019-04-06T01:15:07.632Z,96.875
2019-04-06T01:15:19.650Z,96.97876
2019-04-06T01:15:31.505Z,96.97876
2019-04-06T01:15:43.458Z,97.08252
2019-04-06T01:15:55.360Z,97.08252
2019-04-06T01:16:07.204Z,97.186279
2019-04-06T01:16:19.115Z,97.186279
2019-04-06T01:16:31.046Z,97.290039
2019-04-06T01:16:42.997Z,97.393799
2019-04-06T01:16:54.856Z,97.393799
2019-04-06T01:17:06.699Z,97.497559
2019-04-06T01:17:18.801Z,97.497559
2019-04-06T01:17:30.826Z,97.497559
2019-04-06T01:17:42.677Z,97.601318
2019-04-06T01:17:54.554Z,97.601318
2019-04-06T01:18:06.537Z,97.601318
2019-04-06T01:18:18.394Z,97.705078
2019-04-06T01:18:30.250Z,97.705078
2019-04-06T01:18:42.203Z,97.705078
2019-04-06T01:18:54.135Z,97.808838
2019-04-06T01:19:06.056Z,97.808838
2019-04-06T01:19:17.901Z,97.808838
2019-04-06T01:19:29.780Z,97.955322
2019-04-06T01:19:41.856Z,97.955322
2019-04-06T01:19:53.788Z,97.955322
2019-04-06T01:20:05.614Z,98.059082
2019-04-06T01:20:17.464Z,98.059082
2019-04-06T01:20:29.309Z,98.059082
2019-04-06T01:20:41.382Z,98.059082
2019-04-06T01:20:53.298Z,98.162842
2019-04-06T01:21:05.150Z,98.162842
2019-04-06T01:21:17.042Z,98.162842
2019-04-06T01:21:28.958Z,98.162842
2019-04-06T01:21:40.789Z,98.162842
2019-04-06T01:21:53.725Z,98.162842
2019-04-06T01:22:05.566Z,98.162842
2019-04-06T01:22:17.519Z,98.162842
2019-04-06T01:22:29.376Z,98.162842
2019-04-06T01:22:41.405Z,98.162842
2019-04-06T01:22:53.253Z,98.162842
2019-04-06T01:23:05.097Z,98.162842
2019-04-06T01:23:17.095Z,98.162842
2019-04-06T01:23:28.947Z,98.162842
2019-04-06T01:23:40.803Z,98.162842
2019-04-06T01:23:52.652Z,98.162842
2019-04-06T01:24:04.483Z,98.162842
2019-04-06T01:24:16.582Z,98.162842
2019-04-06T01:24:28.360Z,98.162842
2019-04-06T01:24:40.220Z,98.205566
2019-04-06T01:24:52.355Z,98.205566
2019-04-06T01:25:04.345Z,98.205566
2019-04-06T01:25:16.154Z,98.205566
2019-04-06T01:25:28.172Z,98.205566
2019-04-06T01:25:40.169Z,98.205566
2019-04-06T01:25:52.118Z,98.205566
2019-04-06T01:26:07.270Z,98.205566
2019-04-06T01:26:16.862Z,98.205566
2019-04-06T01:26:28.765Z,98.205566
2019-04-06T01:26:40.573Z,98.309326
2019-04-06T01:26:52.589Z,98.309326
2019-04-06T01:27:04.533Z,98.309326
2019-04-06T01:27:16.384Z,98.309326
2019-04-06T01:27:28.328Z,98.309326
2019-04-06T01:27:40.302Z,98.309326
2019-04-06T01:27:52.157Z,98.309326
2019-04-06T01:28:04.095Z,98.309326
2019-04-06T01:28:16.016Z,98.309326
2019-04-06T01:28:27.859Z,98.309326
2019-04-06T01:28:39.785Z,98.309326
2019-04-06T01:28:51.824Z,98.309326
2019-04-06T01:29:03.662Z,98.413086
2019-04-06T01:29:16.613Z,98.413086
2019-04-06T01:29:28.462Z,98.413086
2019-04-06T01:29:40.519Z,98.413086
2019-04-06T01:29:52.441Z,98.413086
2019-04-06T01:30:04.376Z,98.413086
2019-04-06T01:30:16.244Z,98.413086
2019-04-06T01:30:28.203Z,98.413086
2019-04-06T01:30:40.108Z,98.413086
2019-04-06T01:30:52.091Z,98.516846
2019-04-06T01:31:03.934Z,98.516846
2019-04-06T01:31:15.818Z,98.516846
2019-04-06T01:31:27.745Z,98.516846
2019-04-06T01:31:39.617Z,98.516846
2019-04-06T01:31:51.462Z,98.516846
2019-04-06T01:32:03.322Z,98.516846
2019-04-06T01:32:15.205Z,98.516846
2019-04-06T01:32:27.159Z,98.516846
2019-04-06T01:32:38.991Z,98.516846
2019-04-06T01:32:50.939Z,98.620605
2019-04-06T01:33:02.960Z,98.620605
2019-04-06T01:33:14.820Z,98.620605
2019-04-06T01:33:26.723Z,98.620605
2019-04-06T01:33:38.537Z,98.620605
2019-04-06T01:33:50.383Z,98.620605
2019-04-06T01:34:02.358Z,98.620605
2019-04-06T01:34:14.197Z,98.620605
2019-04-06T01:34:26.102Z,98.620605
2019-04-06T01:34:38.101Z,98.620605
2019-04-06T01:34:49.994Z,98.620605
2019-04-06T01:35:01.839Z,98.620605
2019-04-06T01:35:13.768Z,98.620605
2019-04-06T01:35:25.671Z,98.620605
2019-04-06T01:35:37.682Z,98.620605
2019-04-06T01:35:49.566Z,98.620605
2019-04-06T01:36:01.416Z,98.516846
2019-04-06T01:36:13.342Z,98.516846
2019-04-06T01:36:25.250Z,98.516846
2019-04-06T01:36:37.083Z,98.516846
2019-04-06T01:36:48.935Z,98.516846
2019-04-06T01:37:00.780Z,98.516846
2019-04-06T01:37:12.794Z,98.516846
2019-04-06T01:37:24.632Z,98.516846
2019-04-06T01:37:36.478Z,98.516846
2019-04-06T01:37:48.557Z,98.516846
2019-04-06T01:38:00.489Z,98.516846
2019-04-06T01:38:12.342Z,98.516846
2019-04-06T01:38:24.186Z,98.413086
2019-04-06T01:38:37.009Z,98.413086
2019-04-06T01:38:48.855Z,98.413086
2019-04-06T01:39:00.771Z,98.413086
2019-04-06T01:39:12.764Z,98.309326
2019-04-06T01:39:24.591Z,98.309326
2019-04-06T01:39:36.491Z,98.309326
2019-04-06T01:39:48.470Z,98.352051
2019-04-06T01:40:00.343Z,98.254395
2019-04-06T01:40:12.187Z,98.254395
2019-04-06T01:40:24.029Z,98.254395
2019-04-06T01:40:35.957Z,98.150635
2019-04-06T01:40:47.875Z,98.150635
2019-04-06T01:40:59.725Z,98.150635
2019-04-06T01:41:11.682Z,98.150635
2019-04-06T01:41:23.561Z,98.150635
2019-04-06T01:41:35.452Z,98.150635
2019-04-06T01:41:47.315Z,98.150635
2019-04-06T01:41:59.166Z,98.150635
2019-04-06T01:42:11.145Z,98.150635
2019-04-06T01:42:24.200Z,98.150635
2019-04-06T01:42:36.116Z,98.150635
2019-04-06T01:42:48.159Z,98.150635
2019-04-06T01:43:00.001Z,98.150635
2019-04-06T01:43:11.921Z,98.150635
2019-04-06T01:43:24.075Z,98.150635
2019-04-06T01:43:35.963Z,98.150635
2019-04-06T01:43:47.861Z,98.150635
2019-04-06T01:43:59.665Z,98.254395
2019-04-06T01:44:11.608Z,98.254395
2019-04-06T01:44:23.579Z,98.254395
2019-04-06T01:44:35.440Z,98.254395
2019-04-06T01:44:47.409Z,98.254395
2019-04-06T01:44:59.306Z,98.352051
2019-04-06T01:45:11.217Z,98.352051
2019-04-06T01:45:23.127Z,98.455811
2019-04-06T01:45:34.933Z,98.504639
2019-04-06T01:45:46.786Z,98.504639
2019-04-06T01:45:58.826Z,98.55957
2019-04-06T01:46:10.712Z,98.55957
2019-04-06T01:46:22.561Z,98.608398
2019-04-06T01:46:34.406Z,98.712158
2019-04-06T01:46:46.585Z,98.712158
2019-04-06T01:46:58.525Z,98.712158
2019-04-06T01:47:10.380Z,98.712158
2019-04-06T01:47:22.361Z,98.712158
2019-04-06T01:47:34.377Z,98.815918
2019-04-06T01:47:46.357Z,98.815918
2019-04-06T01:47:58.210Z,98.815918
2019-04-06T01:48:10.053Z,98.815918
2019-04-06T01:48:21.898Z,98.815918
2019-04-06T01:48:33.871Z,98.815918
2019-04-06T01:48:45.755Z,98.815918
2019-04-06T01:48:57.615Z,98.815918
2019-04-06T01:49:09.598Z,98.919678
2019-04-06T01:49:21.382Z,98.919678
2019-04-06T01:49:33.233Z,98.919678
2019-04-06T01:49:45.148Z,98.919678
2019-04-06T01:49:56.996Z,98.919678
2019-04-06T01:50:08.983Z,98.919678
2019-04-06T01:50:20.921Z,98.919678
2019-04-06T01:50:32.744Z,98.919678
2019-04-06T01:50:44.771Z,99.023438
2019-04-06T01:50:56.943Z,99.023438
2019-04-06T01:51:08.713Z,99.023438
2019-04-06T01:51:20.561Z,99.023438
2019-04-06T01:51:32.473Z,99.023438
2019-04-06T01:51:45.306Z,99.127197
2019-04-06T01:51:57.170Z,99.127197
2019-04-06T01:52:09.141Z,99.127197
2019-04-06T01:52:21.049Z,99.127197
2019-04-06T01:52:32.830Z,99.127197
2019-04-06T01:52:44.901Z,99.127197
2019-04-06T01:52:56.908Z,99.127197
2019-04-06T01:53:08.749Z,99.230957
2019-04-06T01:53:20.593Z,99.230957
2019-04-06T01:53:32.683Z,99.230957
2019-04-06T01:53:44.658Z,99.230957
2019-04-06T01:53:56.585Z,99.230957
2019-04-06T01:54:08.420Z,99.230957
2019-04-06T01:54:20.269Z,99.230957
2019-04-06T01:54:32.245Z,99.230957
2019-04-06T01:54:44.065Z,99.230957
2019-04-06T01:54:55.915Z,99.230957
2019-04-06T01:55:07.910Z,99.230957
2019-04-06T01:55:19.804Z,99.230957
2019-04-06T01:55:31.715Z,99.230957
2019-04-06T01:55:43.665Z,99.334717
2019-04-06T01:55:55.534Z,99.334717
2019-04-06T01:56:17.848Z,99.334717
2019-04-06T01:56:20.395Z,99.334717
2019-04-06T01:56:32.435Z,99.334717
2019-04-06T01:56:44.199Z,99.334717
2019-04-06T01:56:56.044Z,99.334717
2019-04-06T01:57:08.078Z,99.334717
2019-04-06T01:57:19.983Z,99.334717
2019-04-06T01:57:31.901Z,99.334717
2019-04-06T01:57:43.861Z,99.334717
2019-04-06T01:57:55.710Z,99.334717
2019-04-06T01:58:07.622Z,99.334717
2019-04-06T01:58:19.695Z,99.334717
2019-04-06T01:58:31.483Z,99.334717
2019-04-06T01:58:43.378Z,99.432373
2019-04-06T01:58:55.310Z,99.432373
2019-04-06T01:59:07.238Z,99.432373
2019-04-06T01:59:19.071Z,99.432373
2019-04-06T01:59:30.918Z,99.432373
2019-04-06T01:59:42.865Z,99.432373
2019-04-06T01:59:54.790Z,99.432373
2019-04-06T02:00:06.605Z,99.432373
2019-04-06T02:00:18.559Z,99.432373
2019-04-06T02:00:30.538Z,99.432373
2019-04-06T02:00:42.403Z,99.389648
2019-04-06T02:00:54.238Z,99.389648
2019-04-06T02:01:06.240Z,99.389648
2019-04-06T02:01:18.092Z,99.493408
2019-04-06T02:01:30.192Z,99.493408
2019-04-06T02:01:42.030Z,99.493408
2019-04-06T02:01:53.952Z,99.493408
2019-04-06T02:02:05.874Z,99.493408
2019-04-06T02:02:17.826Z,99.493408
2019-04-06T02:02:29.643Z,99.597168
2019-04-06T02:02:41.533Z,99.597168
2019-04-06T02:02:53.443Z,99.597168
2019-04-06T02:03:05.341Z,99.597168
2019-04-06T02:03:18.228Z,99.597168
2019-04-06T02:03:30.159Z,99.597168
2019-04-06T02:03:41.999Z,99.597168
2019-04-06T02:03:53.890Z,99.597168
2019-04-06T02:04:05.847Z,99.597168
2019-04-06T02:04:17.877Z,99.54834
2019-04-06T02:04:29.643Z,99.54834
2019-04-06T02:04:41.580Z,99.54834
2019-04-06T02:04:53.477Z,99.6521
2019-04-06T02:05:06.312Z,99.6521
2019-04-06T02:05:18.240Z,99.6521
2019-04-06T02:05:30.077Z,99.6521
2019-04-06T02:05:41.921Z,99.6521
2019-04-06T02:05:53.831Z,99.6521
2019-04-06T02:06:05.707Z,99.6521
2019-04-06T02:06:17.552Z,99.6521
2019-04-06T02:06:29.410Z,99.54834
2019-04-06T02:06:41.258Z,99.54834
2019-04-06T02:06:53.381Z,99.54834
2019-04-06T02:07:05.258Z,99.54834
2019-04-06T02:07:17.117Z,99.54834
2019-04-06T02:07:29.042Z,99.54834
2019-04-06T02:07:40.977Z,99.54834
2019-04-06T02:07:52.819Z,99.54834
2019-04-06T02:08:04.674Z,99.54834
2019-04-06T02:08:16.524Z,99.54834
2019-04-06T02:08:28.541Z,99.44458
2019-04-06T02:08:40.372Z,99.44458
2019-04-06T02:08:52.237Z,99.44458
2019-04-06T02:09:04.292Z,99.44458
2019-04-06T02:09:16.167Z,99.44458
2019-04-06T02:09:28.013Z,99.44458
2019-04-06T02:09:39.870Z,99.44458
2019-04-06T02:09:51.967Z,99.44458
2019-04-06T02:10:03.882Z,99.44458
2019-04-06T02:10:15.830Z,99.44458
2019-04-06T02:10:27.767Z,99.44458
2019-04-06T02:10:39.726Z,99.44458
2019-04-06T02:10:51.586Z,99.44458
2019-04-06T02:11:03.565Z,99.44458
2019-04-06T02:11:15.406Z,99.44458
2019-04-06T02:11:27.349Z,99.44458
2019-04-06T02:11:39.423Z,99.44458
2019-04-06T02:11:51.181Z,99.44458
2019-04-06T02:12:03.028Z,99.34082
2019-04-06T02:12:14.881Z,99.34082
2019-04-06T02:12:26.871Z,99.34082
2019-04-06T02:12:38.817Z,99.34082
2019-04-06T02:12:50.573Z,99.34082
2019-04-06T02:13:02.512Z,99.34082
2019-04-06T02:13:14.498Z,99.243164
2019-04-06T02:13:26.356Z,99.243164
2019-04-06T02:13:38.197Z,99.243164
2019-04-06T02:13:50.142Z,99.243164
2019-04-06T02:14:02.003Z,99.243164
2019-04-06T02:14:14.194Z,99.243164
2019-04-06T02:14:26.063Z,99.139404
2019-04-06T02:14:37.894Z,99.139404
2019-04-06T02:14:49.821Z,99.139404
2019-04-06T02:15:01.740Z,99.139404
2019-04-06T02:15:13.595Z,99.139404
2019-04-06T02:15:25.445Z,99.139404
2019-04-06T02:15:37.309Z,99.035645
2019-04-06T02:15:49.256Z,99.035645
2019-04-06T02:16:01.126Z,99.035645
2019-04-06T02:16:12.965Z,98.931885
2019-04-06T02:16:24.971Z,98.931885
2019-04-06T02:16:36.905Z,98.931885
2019-04-06T02:16:48.738Z,98.931885